Airfield :
LOGIN :

Register | Disclaimer

   EN    FR    IT 

 










Legend :    VFR   Marginal VFR   IFR   Intensive IFR   Very Intensive IFR
Visi :
Ceiling :
>= 8 km
>= 3000ft
5 to 8 km
1000 to 3000 ft
1500m to 5 km
500 to 1000 ft
800 to 1500m
200 to 500 ft
< 800m
< 200 ft
Symbols :   Thunderstorms  Fog  Heavy snow  Heavy precipitations  Wind > 20 kt
SIGMETs :     Misc.  Thunderstorms  Icing  Turbulence  Mountain Waves  Volcanic Ashes







- Airport Elevation : 935 ft


EBFS - Florennes

CURRENT METAR :
  • 210355Z AUTO //////KT 9999 FEW055/// BKN100/// 16/11 Q1012 BLU

EXPIRED METARs :
  • 210325Z VRB02KT 9999 FEW055 BKN110 15/11 Q1012 BLU BLU
  • 210313Z VRB02KT 9999 FEW055 BKN110 15/11 Q1012 BLU BLU
  • 210255Z AUTO //////KT 9999 FEW055/// BKN120/// OVC130/// 15/12 Q1012 BLU
  • 210225Z AUTO //////KT 9999 FEW075/// SCT095/// BKN110/// 17/11 Q1012 BLU
  • 210155Z AUTO //////KT 9999 FEW065/// BKN140/// OVC160/// 16/10 Q1012 BLU
  • 210125Z AUTO //////KT 9999 FEW100/// BKN140/// BKN170/// 16/10 Q1012 BLU

TAF TAF EBFS
Valid from the 20 at 19:00 until the 21 at 07:00 UTC


201541Z 2019/2107 33008KT 9999 BKN035
PROB30
TEMPO 2020/2022 33010G20KT 6000 -SHRA BKN030
No reported NOTAMs for that airfield.



MET'MAP, your aeronautical weather chart ! - Copyright ORBIFLY December 2007 - Disclaimer

ORBIFLY MET'MAP TEAM :

Programming & Development : Alexandra Zaïnal
Concept & Development : Baudouin d'Aumeries
Co-Development & Prog : Marc-Olivier Méhu
Technical & hardware support : Manuel Goepfert

Contact : metmap@orbifly.com




SOURCES & CREDITS :

   NOAA